sensor_id;sensor_type;location;lat;lon;timestamp;P1;durP1;ratioP1;P2;durP2;ratioP2
9807;SDS011;4943;52.550;13.462;2023-09-19T00:00:40;262.97;;;100.87;;
9807;SDS011;4943;52.550;13.462;2023-09-19T00:03:09;268.67;;;100.90;;
9807;SDS011;4943;52.550;13.462;2023-09-19T00:05:38;266.33;;;101.87;;
9807;SDS011;4943;52.550;13.462;2023-09-19T00:08:11;265.97;;;102.37;;
9807;SDS011;4943;52.550;13.462;2023-09-19T00:10:40;265.03;;;101.90;;
9807;SDS011;4943;52.550;13.462;2023-09-19T00:13:09;263.93;;;100.20;;
9807;SDS011;4943;52.550;13.462;2023-09-19T00:15:43;276.13;;;100.00;;
9807;SDS011;4943;52.550;13.462;2023-09-19T00:18:16;269.37;;;100.93;;
9807;SDS011;4943;52.550;13.462;2023-09-19T00:20:46;262.43;;;99.80;;
9807;SDS011;4943;52.550;13.462;2023-09-19T00:23:16;265.93;;;102.17;;
9807;SDS011;4943;52.550;13.462;2023-09-19T00:25:46;263.97;;;101.13;;
9807;SDS011;4943;52.550;13.462;2023-09-19T00:28:14;265.70;;;100.13;;
9807;SDS011;4943;52.550;13.462;2023-09-19T00:30:45;264.23;;;99.83;;
9807;SDS011;4943;52.550;13.462;2023-09-19T00:33:16;262.97;;;99.07;;
9807;SDS011;4943;52.550;13.462;2023-09-19T00:35:47;263.37;;;100.43;;
9807;SDS011;4943;52.550;13.462;2023-09-19T00:38:15;266.13;;;98.03;;
9807;SDS011;4943;52.550;13.462;2023-09-19T00:40:46;265.20;;;99.20;;
9807;SDS011;4943;52.550;13.462;2023-09-19T00:43:14;264.47;;;100.83;;
9807;SDS011;4943;52.550;13.462;2023-09-19T00:45:45;262.97;;;99.53;;
9807;SDS011;4943;52.550;13.462;2023-09-19T00:48:17;269.10;;;101.53;;
9807;SDS011;4943;52.550;13.462;2023-09-19T00:50:47;265.47;;;98.60;;
9807;SDS011;4943;52.550;13.462;2023-09-19T00:53:17;262.87;;;99.43;;
9807;SDS011;4943;52.550;13.462;2023-09-19T00:55:49;263.50;;;98.73;;
9807;SDS011;4943;52.550;13.462;2023-09-19T00:58:18;264.23;;;99.73;;
9807;SDS011;4943;52.550;13.462;2023-09-19T01:00:48;261.57;;;97.27;;
9807;SDS011;4943;52.550;13.462;2023-09-19T01:03:17;264.00;;;100.80;;
9807;SDS011;4943;52.550;13.462;2023-09-19T01:05:46;265.00;;;98.70;;
9807;SDS011;4943;52.550;13.462;2023-09-19T01:08:14;261.73;;;97.87;;
9807;SDS011;4943;52.550;13.462;2023-09-19T01:10:44;263.60;;;99.80;;
9807;SDS011;4943;52.550;13.462;2023-09-19T01:13:21;261.57;;;99.47;;
9807;SDS011;4943;52.550;13.462;2023-09-19T01:15:59;267.30;;;101.07;;
9807;SDS011;4943;52.550;13.462;2023-09-19T01:18:35;261.87;;;98.10;;
9807;SDS011;4943;52.550;13.462;2023-09-19T01:21:11;263.17;;;97.77;;
9807;SDS011;4943;52.550;13.462;2023-09-19T01:23:55;262.43;;;98.83;;
9807;SDS011;4943;52.550;13.462;2023-09-19T01:26:49;261.73;;;97.97;;
9807;SDS011;4943;52.550;13.462;2023-09-19T01:29:34;262.63;;;98.43;;
9807;SDS011;4943;52.550;13.462;2023-09-19T01:32:08;262.47;;;96.60;;
9807;SDS011;4943;52.550;13.462;2023-09-19T01:34:46;266.80;;;99.43;;
9807;SDS011;4943;52.550;13.462;2023-09-19T01:37:17;261.40;;;98.63;;
9807;SDS011;4943;52.550;13.462;2023-09-19T01:39:52;261.67;;;98.20;;
9807;SDS011;4943;52.550;13.462;2023-09-19T01:42:37;261.10;;;97.43;;
9807;SDS011;4943;52.550;13.462;2023-09-19T01:45:11;264.23;;;99.53;;
9807;SDS011;4943;52.550;13.462;2023-09-19T01:47:46;263.03;;;99.30;;
9807;SDS011;4943;52.550;13.462;2023-09-19T01:50:17;262.13;;;98.83;;
9807;SDS011;4943;52.550;13.462;2023-09-19T01:52:59;261.73;;;98.83;;
9807;SDS011;4943;52.550;13.462;2023-09-19T01:55:34;263.60;;;101.47;;
9807;SDS011;4943;52.550;13.462;2023-09-19T01:58:06;261.43;;;99.63;;
9807;SDS011;4943;52.550;13.462;2023-09-19T02:00:41;262.50;;;99.00;;
9807;SDS011;4943;52.550;13.462;2023-09-19T02:03:13;266.33;;;101.93;;
9807;SDS011;4943;52.550;13.462;2023-09-19T02:05:47;263.57;;;100.20;;
9807;SDS011;4943;52.550;13.462;2023-09-19T02:08:17;261.03;;;97.57;;
9807;SDS011;4943;52.550;13.462;2023-09-19T02:10:46;263.63;;;100.13;;
9807;SDS011;4943;52.550;13.462;2023-09-19T02:13:15;264.07;;;100.30;;
9807;SDS011;4943;52.550;13.462;2023-09-19T02:15:45;263.53;;;100.47;;
9807;SDS011;4943;52.550;13.462;2023-09-19T02:18:15;265.17;;;101.10;;
9807;SDS011;4943;52.550;13.462;2023-09-19T02:20:43;266.20;;;100.80;;
9807;SDS011;4943;52.550;13.462;2023-09-19T02:23:12;261.83;;;99.77;;
9807;SDS011;4943;52.550;13.462;2023-09-19T02:25:41;274.80;;;100.10;;
9807;SDS011;4943;52.550;13.462;2023-09-19T02:28:10;261.90;;;98.43;;
9807;SDS011;4943;52.550;13.462;2023-09-19T02:30:38;262.33;;;99.50;;
9807;SDS011;4943;52.550;13.462;2023-09-19T02:33:06;270.67;;;98.90;;
9807;SDS011;4943;52.550;13.462;2023-09-19T02:35:36;261.17;;;96.67;;
9807;SDS011;4943;52.550;13.462;2023-09-19T02:38:04;262.40;;;97.00;;
9807;SDS011;4943;52.550;13.462;2023-09-19T02:40:37;265.33;;;98.30;;
9807;SDS011;4943;52.550;13.462;2023-09-19T02:43:06;266.43;;;98.50;;
9807;SDS011;4943;52.550;13.462;2023-09-19T02:45:35;262.73;;;99.00;;
9807;SDS011;4943;52.550;13.462;2023-09-19T02:48:03;260.03;;;95.53;;
9807;SDS011;4943;52.550;13.462;2023-09-19T02:50:32;262.63;;;96.43;;
9807;SDS011;4943;52.550;13.462;2023-09-19T02:53:03;265.93;;;97.67;;
9807;SDS011;4943;52.550;13.462;2023-09-19T02:55:32;263.83;;;98.47;;
9807;SDS011;4943;52.550;13.462;2023-09-19T02:58:01;266.90;;;98.47;;
9807;SDS011;4943;52.550;13.462;2023-09-19T03:00:31;260.47;;;95.30;;
9807;SDS011;4943;52.550;13.462;2023-09-19T03:03:00;270.33;;;96.80;;
9807;SDS011;4943;52.550;13.462;2023-09-19T03:05:28;260.70;;;93.67;;
9807;SDS011;4943;52.550;13.462;2023-09-19T03:07:57;263.33;;;96.67;;
9807;SDS011;4943;52.550;13.462;2023-09-19T03:10:28;259.70;;;94.60;;
9807;SDS011;4943;52.550;13.462;2023-09-19T03:12:57;258.67;;;93.93;;
9807;SDS011;4943;52.550;13.462;2023-09-19T03:15:26;259.33;;;93.27;;
9807;SDS011;4943;52.550;13.462;2023-09-19T03:17:54;260.13;;;95.70;;
9807;SDS011;4943;52.550;13.462;2023-09-19T03:20:22;261.47;;;94.10;;
9807;SDS011;4943;52.550;13.462;2023-09-19T03:22:51;276.30;;;95.97;;
9807;SDS011;4943;52.550;13.462;2023-09-19T03:25:20;262.37;;;97.60;;
9807;SDS011;4943;52.550;13.462;2023-09-19T03:27:51;259.97;;;94.67;;
9807;SDS011;4943;52.550;13.462;2023-09-19T03:30:19;260.33;;;94.90;;
9807;SDS011;4943;52.550;13.462;2023-09-19T03:32:47;263.23;;;97.00;;
9807;SDS011;4943;52.550;13.462;2023-09-19T03:35:17;260.23;;;94.87;;
9807;SDS011;4943;52.550;13.462;2023-09-19T03:37:45;262.27;;;94.50;;
9807;SDS011;4943;52.550;13.462;2023-09-19T03:40:14;260.73;;;95.10;;
9807;SDS011;4943;52.550;13.462;2023-09-19T03:42:43;268.07;;;98.13;;
9807;SDS011;4943;52.550;13.462;2023-09-19T03:45:12;263.87;;;95.43;;
9807;SDS011;4943;52.550;13.462;2023-09-19T03:47:42;269.30;;;94.67;;
9807;SDS011;4943;52.550;13.462;2023-09-19T03:50:10;258.30;;;93.63;;
9807;SDS011;4943;52.550;13.462;2023-09-19T03:52:38;260.97;;;93.60;;
9807;SDS011;4943;52.550;13.462;2023-09-19T03:55:06;258.57;;;91.93;;
9807;SDS011;4943;52.550;13.462;2023-09-19T03:57:36;259.80;;;93.97;;
9807;SDS011;4943;52.550;13.462;2023-09-19T04:00:04;260.93;;;94.40;;
9807;SDS011;4943;52.550;13.462;2023-09-19T04:02:39;260.33;;;94.03;;
9807;SDS011;4943;52.550;13.462;2023-09-19T04:05:08;260.40;;;94.47;;
9807;SDS011;4943;52.550;13.462;2023-09-19T04:07:37;260.57;;;95.40;;
9807;SDS011;4943;52.550;13.462;2023-09-19T04:10:05;261.67;;;95.30;;
9807;SDS011;4943;52.550;13.462;2023-09-19T04:12:35;262.83;;;97.27;;
9807;SDS011;4943;52.550;13.462;2023-09-19T04:15:03;260.73;;;93.13;;
9807;SDS011;4943;52.550;13.462;2023-09-19T04:17:32;261.80;;;95.37;;
9807;SDS011;4943;52.550;13.462;2023-09-19T04:20:02;259.80;;;92.47;;
9807;SDS011;4943;52.550;13.462;2023-09-19T04:22:33;264.33;;;93.37;;
9807;SDS011;4943;52.550;13.462;2023-09-19T04:25:01;259.33;;;92.30;;
9807;SDS011;4943;52.550;13.462;2023-09-19T04:27:30;259.53;;;94.03;;
9807;SDS011;4943;52.550;13.462;2023-09-19T04:29:58;266.30;;;91.60;;
9807;SDS011;4943;52.550;13.462;2023-09-19T04:32:27;269.40;;;94.73;;
9807;SDS011;4943;52.550;13.462;2023-09-19T04:34:58;261.73;;;94.13;;
9807;SDS011;4943;52.550;13.462;2023-09-19T04:37:31;260.07;;;92.87;;
9807;SDS011;4943;52.550;13.462;2023-09-19T04:39:59;261.27;;;94.17;;
9807;SDS011;4943;52.550;13.462;2023-09-19T04:42:27;258.57;;;91.90;;
9807;SDS011;4943;52.550;13.462;2023-09-19T04:44:56;258.60;;;90.63;;
9807;SDS011;4943;52.550;13.462;2023-09-19T04:47:26;260.83;;;92.40;;
9807;SDS011;4943;52.550;13.462;2023-09-19T04:49:54;264.27;;;90.93;;
9807;SDS011;4943;52.550;13.462;2023-09-19T04:52:23;260.27;;;93.00;;
9807;SDS011;4943;52.550;13.462;2023-09-19T04:54:52;258.73;;;92.03;;
9807;SDS011;4943;52.550;13.462;2023-09-19T04:57:20;263.57;;;95.80;;
9807;SDS011;4943;52.550;13.462;2023-09-19T04:59:49;260.40;;;93.53;;
9807;SDS011;4943;52.550;13.462;2023-09-19T05:02:17;261.87;;;91.53;;
9807;SDS011;4943;52.550;13.462;2023-09-19T05:04:45;260.00;;;96.33;;
9807;SDS011;4943;52.550;13.462;2023-09-19T05:07:13;260.50;;;94.43;;
9807;SDS011;4943;52.550;13.462;2023-09-19T05:09:41;263.67;;;92.00;;
9807;SDS011;4943;52.550;13.462;2023-09-19T05:12:11;257.10;;;91.93;;
9807;SDS011;4943;52.550;13.462;2023-09-19T05:14:39;261.10;;;93.50;;
9807;SDS011;4943;52.550;13.462;2023-09-19T05:17:07;261.03;;;95.10;;
9807;SDS011;4943;52.550;13.462;2023-09-19T05:19:35;262.13;;;91.83;;
9807;SDS011;4943;52.550;13.462;2023-09-19T05:22:05;260.80;;;95.33;;
9807;SDS011;4943;52.550;13.462;2023-09-19T05:24:33;258.47;;;92.27;;
9807;SDS011;4943;52.550;13.462;2023-09-19T05:27:01;259.60;;;94.10;;
9807;SDS011;4943;52.550;13.462;2023-09-19T05:29:32;258.87;;;93.73;;
9807;SDS011;4943;52.550;13.462;2023-09-19T05:32:00;257.57;;;91.83;;
9807;SDS011;4943;52.550;13.462;2023-09-19T05:34:30;259.97;;;93.83;;
9807;SDS011;4943;52.550;13.462;2023-09-19T05:36:58;260.13;;;96.40;;
9807;SDS011;4943;52.550;13.462;2023-09-19T05:39:26;259.97;;;94.67;;
9807;SDS011;4943;52.550;13.462;2023-09-19T05:41:54;257.93;;;92.90;;
9807;SDS011;4943;52.550;13.462;2023-09-19T05:44:23;258.13;;;92.10;;
9807;SDS011;4943;52.550;13.462;2023-09-19T05:46:53;261.87;;;93.10;;
9807;SDS011;4943;52.550;13.462;2023-09-19T05:49:23;261.43;;;94.47;;
9807;SDS011;4943;52.550;13.462;2023-09-19T05:51:52;262.37;;;98.73;;
9807;SDS011;4943;52.550;13.462;2023-09-19T05:54:21;260.03;;;95.80;;
9807;SDS011;4943;52.550;13.462;2023-09-19T05:56:49;263.47;;;98.90;;
9807;SDS011;4943;52.550;13.462;2023-09-19T05:59:19;262.10;;;98.13;;
9807;SDS011;4943;52.550;13.462;2023-09-19T06:01:47;264.67;;;96.07;;
9807;SDS011;4943;52.550;13.462;2023-09-19T06:04:17;264.20;;;94.03;;
9807;SDS011;4943;52.550;13.462;2023-09-19T06:06:45;258.97;;;94.30;;
9807;SDS011;4943;52.550;13.462;2023-09-19T06:09:14;261.87;;;98.37;;
9807;SDS011;4943;52.550;13.462;2023-09-19T06:11:43;260.77;;;94.00;;
9807;SDS011;4943;52.550;13.462;2023-09-19T06:14:11;260.70;;;94.50;;
9807;SDS011;4943;52.550;13.462;2023-09-19T06:16:40;260.17;;;95.50;;
9807;SDS011;4943;52.550;13.462;2023-09-19T06:19:10;260.80;;;97.43;;
9807;SDS011;4943;52.550;13.462;2023-09-19T06:21:39;266.80;;;97.80;;
9807;SDS011;4943;52.550;13.462;2023-09-19T06:24:08;262.47;;;98.47;;
9807;SDS011;4943;52.550;13.462;2023-09-19T06:26:37;258.57;;;94.93;;
9807;SDS011;4943;52.550;13.462;2023-09-19T06:29:05;259.40;;;95.60;;
9807;SDS011;4943;52.550;13.462;2023-09-19T06:31:33;259.70;;;95.67;;
9807;SDS011;4943;52.550;13.462;2023-09-19T06:34:02;260.47;;;97.80;;
9807;SDS011;4943;52.550;13.462;2023-09-19T06:36:30;267.40;;;98.23;;
9807;SDS011;4943;52.550;13.462;2023-09-19T06:39:00;258.57;;;94.40;;
9807;SDS011;4943;52.550;13.462;2023-09-19T06:41:30;260.63;;;94.43;;
9807;SDS011;4943;52.550;13.462;2023-09-19T06:43:58;257.63;;;94.23;;
9807;SDS011;4943;52.550;13.462;2023-09-19T06:46:26;262.67;;;96.37;;
9807;SDS011;4943;52.550;13.462;2023-09-19T06:48:59;261.20;;;95.20;;
9807;SDS011;4943;52.550;13.462;2023-09-19T06:51:27;260.27;;;97.03;;
9807;SDS011;4943;52.550;13.462;2023-09-19T06:53:56;262.80;;;98.10;;
9807;SDS011;4943;52.550;13.462;2023-09-19T06:56:26;261.77;;;96.13;;
9807;SDS011;4943;52.550;13.462;2023-09-19T06:58:54;262.07;;;95.37;;
9807;SDS011;4943;52.550;13.462;2023-09-19T07:01:22;264.80;;;95.90;;
9807;SDS011;4943;52.550;13.462;2023-09-19T07:03:51;263.40;;;93.17;;
9807;SDS011;4943;52.550;13.462;2023-09-19T07:06:20;259.50;;;93.70;;
9807;SDS011;4943;52.550;13.462;2023-09-19T07:08:48;262.80;;;94.40;;
9807;SDS011;4943;52.550;13.462;2023-09-19T07:11:16;260.53;;;92.43;;
9807;SDS011;4943;52.550;13.462;2023-09-19T07:13:46;261.53;;;91.50;;
9807;SDS011;4943;52.550;13.462;2023-09-19T07:16:14;263.37;;;95.73;;
9807;SDS011;4943;52.550;13.462;2023-09-19T07:18:54;265.90;;;97.63;;
9807;SDS011;4943;52.550;13.462;2023-09-19T07:21:22;266.30;;;97.33;;
9807;SDS011;4943;52.550;13.462;2023-09-19T07:23:51;264.50;;;99.27;;
9807;SDS011;4943;52.550;13.462;2023-09-19T07:26:19;266.40;;;100.53;;
9807;SDS011;4943;52.550;13.462;2023-09-19T07:28:49;264.17;;;99.40;;
9807;SDS011;4943;52.550;13.462;2023-09-19T07:31:17;265.57;;;101.57;;
9807;SDS011;4943;52.550;13.462;2023-09-19T07:33:45;265.87;;;100.67;;
9807;SDS011;4943;52.550;13.462;2023-09-19T07:36:13;270.27;;;101.77;;
9807;SDS011;4943;52.550;13.462;2023-09-19T07:38:41;267.10;;;102.37;;
9807;SDS011;4943;52.550;13.462;2023-09-19T07:41:09;271.93;;;102.87;;
9807;SDS011;4943;52.550;13.462;2023-09-19T07:43:37;264.23;;;100.20;;
9807;SDS011;4943;52.550;13.462;2023-09-19T07:46:08;269.47;;;103.03;;
9807;SDS011;4943;52.550;13.462;2023-09-19T07:48:36;268.80;;;99.77;;
9807;SDS011;4943;52.550;13.462;2023-09-19T07:51:04;265.40;;;101.37;;
9807;SDS011;4943;52.550;13.462;2023-09-19T07:53:34;265.93;;;101.53;;
9807;SDS011;4943;52.550;13.462;2023-09-19T07:56:04;264.63;;;100.17;;
9807;SDS011;4943;52.550;13.462;2023-09-19T07:58:33;264.63;;;100.87;;
9807;SDS011;4943;52.550;13.462;2023-09-19T08:01:03;267.00;;;101.00;;
9807;SDS011;4943;52.550;13.462;2023-09-19T08:03:34;266.00;;;101.93;;
9807;SDS011;4943;52.550;13.462;2023-09-19T08:06:07;264.70;;;99.87;;
9807;SDS011;4943;52.550;13.462;2023-09-19T08:08:36;265.93;;;101.30;;
9807;SDS011;4943;52.550;13.462;2023-09-19T08:11:05;266.43;;;100.57;;
9807;SDS011;4943;52.550;13.462;2023-09-19T08:13:38;266.87;;;103.10;;
9807;SDS011;4943;52.550;13.462;2023-09-19T08:16:10;267.03;;;101.80;;
9807;SDS011;4943;52.550;13.462;2023-09-19T08:18:40;269.80;;;102.73;;
9807;SDS011;4943;52.550;13.462;2023-09-19T08:21:11;267.07;;;103.50;;
9807;SDS011;4943;52.550;13.462;2023-09-19T08:23:43;269.33;;;105.53;;
9807;SDS011;4943;52.550;13.462;2023-09-19T08:26:11;267.53;;;104.37;;
9807;SDS011;4943;52.550;13.462;2023-09-19T08:28:41;266.07;;;102.40;;
9807;SDS011;4943;52.550;13.462;2023-09-19T08:31:09;268.93;;;104.77;;
9807;SDS011;4943;52.550;13.462;2023-09-19T08:33:37;265.43;;;102.23;;
9807;SDS011;4943;52.550;13.462;2023-09-19T08:36:08;267.77;;;102.03;;
9807;SDS011;4943;52.550;13.462;2023-09-19T08:38:36;273.13;;;104.13;;
9807;SDS011;4943;52.550;13.462;2023-09-19T08:41:05;272.83;;;104.17;;
9807;SDS011;4943;52.550;13.462;2023-09-19T08:43:35;265.07;;;103.77;;
9807;SDS011;4943;52.550;13.462;2023-09-19T08:46:06;265.73;;;103.57;;
9807;SDS011;4943;52.550;13.462;2023-09-19T08:48:39;266.77;;;104.60;;
9807;SDS011;4943;52.550;13.462;2023-09-19T08:51:18;266.77;;;102.73;;
9807;SDS011;4943;52.550;13.462;2023-09-19T08:53:54;268.60;;;101.90;;
9807;SDS011;4943;52.550;13.462;2023-09-19T08:56:31;267.87;;;103.50;;
9807;SDS011;4943;52.550;13.462;2023-09-19T08:59:02;263.07;;;99.57;;
9807;SDS011;4943;52.550;13.462;2023-09-19T09:01:34;269.53;;;102.47;;
9807;SDS011;4943;52.550;13.462;2023-09-19T09:04:04;270.50;;;105.83;;
9807;SDS011;4943;52.550;13.462;2023-09-19T09:06:36;265.57;;;101.90;;
9807;SDS011;4943;52.550;13.462;2023-09-19T09:09:05;264.33;;;103.03;;
9807;SDS011;4943;52.550;13.462;2023-09-19T09:11:35;267.20;;;103.53;;
9807;SDS011;4943;52.550;13.462;2023-09-19T09:14:06;262.80;;;100.07;;
9807;SDS011;4943;52.550;13.462;2023-09-19T09:16:34;263.93;;;102.57;;
9807;SDS011;4943;52.550;13.462;2023-09-19T09:19:02;264.40;;;101.70;;
9807;SDS011;4943;52.550;13.462;2023-09-19T09:21:31;270.93;;;103.10;;
9807;SDS011;4943;52.550;13.462;2023-09-19T09:26:55;267.90;;;104.17;;
9807;SDS011;4943;52.550;13.462;2023-09-19T09:29:41;264.70;;;103.67;;
9807;SDS011;4943;52.550;13.462;2023-09-19T09:32:16;277.60;;;106.87;;
9807;SDS011;4943;52.550;13.462;2023-09-19T09:34:49;265.97;;;106.10;;
9807;SDS011;4943;52.550;13.462;2023-09-19T09:37:19;268.57;;;107.63;;
9807;SDS011;4943;52.550;13.462;2023-09-19T09:39:53;267.10;;;107.40;;
9807;SDS011;4943;52.550;13.462;2023-09-19T09:42:31;269.33;;;106.87;;
9807;SDS011;4943;52.550;13.462;2023-09-19T09:45:14;273.70;;;115.03;;
9807;SDS011;4943;52.550;13.462;2023-09-19T09:47:46;268.80;;;114.93;;
9807;SDS011;4943;52.550;13.462;2023-09-19T09:50:27;272.27;;;119.73;;
9807;SDS011;4943;52.550;13.462;2023-09-19T09:53:19;273.40;;;120.97;;
9807;SDS011;4943;52.550;13.462;2023-09-19T09:55:59;282.00;;;123.53;;
9807;SDS011;4943;52.550;13.462;2023-09-19T09:58:29;285.73;;;126.17;;
9807;SDS011;4943;52.550;13.462;2023-09-19T10:00:58;274.53;;;130.50;;
9807;SDS011;4943;52.550;13.462;2023-09-19T10:03:31;275.03;;;132.10;;
9807;SDS011;4943;52.550;13.462;2023-09-19T10:06:09;274.73;;;130.77;;
9807;SDS011;4943;52.550;13.462;2023-09-19T10:08:57;291.43;;;135.93;;
9807;SDS011;4943;52.550;13.462;2023-09-19T10:11:33;278.07;;;132.90;;
9807;SDS011;4943;52.550;13.462;2023-09-19T10:14:03;277.90;;;132.27;;
9807;SDS011;4943;52.550;13.462;2023-09-19T10:16:36;275.20;;;132.13;;
9807;SDS011;4943;52.550;13.462;2023-09-19T10:19:08;286.27;;;130.87;;
9807;SDS011;4943;52.550;13.462;2023-09-19T10:21:37;276.93;;;130.27;;
9807;SDS011;4943;52.550;13.462;2023-09-19T10:24:06;276.83;;;127.77;;
9807;SDS011;4943;52.550;13.462;2023-09-19T10:26:37;280.53;;;122.87;;
9807;SDS011;4943;52.550;13.462;2023-09-19T10:29:09;279.70;;;123.10;;
9807;SDS011;4943;52.550;13.462;2023-09-19T10:31:40;273.57;;;121.83;;
9807;SDS011;4943;52.550;13.462;2023-09-19T10:34:14;274.83;;;121.10;;
9807;SDS011;4943;52.550;13.462;2023-09-19T10:36:44;275.80;;;118.40;;
9807;SDS011;4943;52.550;13.462;2023-09-19T10:39:13;278.93;;;115.03;;
9807;SDS011;4943;52.550;13.462;2023-09-19T10:41:49;269.03;;;111.97;;
9807;SDS011;4943;52.550;13.462;2023-09-19T10:44:21;271.17;;;113.80;;
9807;SDS011;4943;52.550;13.462;2023-09-19T10:46:51;276.47;;;112.00;;
9807;SDS011;4943;52.550;13.462;2023-09-19T10:49:21;271.13;;;113.87;;
9807;SDS011;4943;52.550;13.462;2023-09-19T10:51:50;271.73;;;116.47;;
9807;SDS011;4943;52.550;13.462;2023-09-19T10:54:22;277.03;;;116.13;;
9807;SDS011;4943;52.550;13.462;2023-09-19T10:56:55;269.57;;;113.87;;
9807;SDS011;4943;52.550;13.462;2023-09-19T10:59:25;270.60;;;111.50;;
9807;SDS011;4943;52.550;13.462;2023-09-19T11:02:15;278.00;;;112.13;;
9807;SDS011;4943;52.550;13.462;2023-09-19T11:04:44;274.67;;;111.57;;
9807;SDS011;4943;52.550;13.462;2023-09-19T11:07:14;269.53;;;111.40;;
9807;SDS011;4943;52.550;13.462;2023-09-19T11:09:46;276.93;;;115.13;;
9807;SDS011;4943;52.550;13.462;2023-09-19T11:24:29;268.10;;;111.67;;
9807;SDS011;4943;52.550;13.462;2023-09-19T11:27:09;271.60;;;114.17;;
9807;SDS011;4943;52.550;13.462;2023-09-19T11:29:45;285.53;;;125.87;;
9807;SDS011;4943;52.550;13.462;2023-09-19T11:32:15;270.50;;;114.37;;
9807;SDS011;4943;52.550;13.462;2023-09-19T11:34:46;269.97;;;114.40;;
9807;SDS011;4943;52.550;13.462;2023-09-19T11:40:34;273.57;;;112.53;;
9807;SDS011;4943;52.550;13.462;2023-09-19T11:46:09;284.00;;;113.93;;
9807;SDS011;4943;52.550;13.462;2023-09-19T11:48:40;278.80;;;112.97;;
9807;SDS011;4943;52.550;13.462;2023-09-19T11:51:11;270.70;;;116.47;;
9807;SDS011;4943;52.550;13.462;2023-09-19T11:53:49;273.37;;;111.87;;
9807;SDS011;4943;52.550;13.462;2023-09-19T11:56:19;275.47;;;117.03;;
9807;SDS011;4943;52.550;13.462;2023-09-19T11:58:50;268.53;;;115.27;;
9807;SDS011;4943;52.550;13.462;2023-09-19T12:01:25;269.40;;;115.37;;
9807;SDS011;4943;52.550;13.462;2023-09-19T12:03:59;274.80;;;117.13;;
9807;SDS011;4943;52.550;13.462;2023-09-19T12:06:29;274.53;;;116.50;;
9807;SDS011;4943;52.550;13.462;2023-09-19T12:08:58;269.83;;;113.73;;
9807;SDS011;4943;52.550;13.462;2023-09-19T12:11:30;273.97;;;119.63;;
9807;SDS011;4943;52.550;13.462;2023-09-19T12:14:00;271.87;;;116.37;;
9807;SDS011;4943;52.550;13.462;2023-09-19T12:16:32;273.70;;;120.13;;
9807;SDS011;4943;52.550;13.462;2023-09-19T12:21:56;272.17;;;122.10;;
9807;SDS011;4943;52.550;13.462;2023-09-19T12:24:26;273.90;;;119.97;;
9807;SDS011;4943;52.550;13.462;2023-09-19T12:26:59;273.70;;;124.77;;
9807;SDS011;4943;52.550;13.462;2023-09-19T12:29:31;279.80;;;121.50;;
9807;SDS011;4943;52.550;13.462;2023-09-19T12:32:04;274.40;;;124.87;;
9807;SDS011;4943;52.550;13.462;2023-09-19T12:34:32;274.40;;;127.73;;
9807;SDS011;4943;52.550;13.462;2023-09-19T12:37:06;273.73;;;124.83;;
9807;SDS011;4943;52.550;13.462;2023-09-19T12:39:39;274.13;;;121.33;;
9807;SDS011;4943;52.550;13.462;2023-09-19T12:42:09;273.73;;;122.73;;
9807;SDS011;4943;52.550;13.462;2023-09-19T12:44:41;274.77;;;126.53;;
9807;SDS011;4943;52.550;13.462;2023-09-19T12:47:12;279.50;;;127.63;;
9807;SDS011;4943;52.550;13.462;2023-09-19T12:50:05;274.80;;;127.33;;
9807;SDS011;4943;52.550;13.462;2023-09-19T12:52:39;273.00;;;127.63;;
9807;SDS011;4943;52.550;13.462;2023-09-19T12:55:19;275.40;;;129.77;;
9807;SDS011;4943;52.550;13.462;2023-09-19T12:57:55;279.20;;;130.67;;
9807;SDS011;4943;52.550;13.462;2023-09-19T13:00:31;272.40;;;127.97;;
9807;SDS011;4943;52.550;13.462;2023-09-19T13:03:16;277.37;;;134.70;;
9807;SDS011;4943;52.550;13.462;2023-09-19T13:05:52;276.63;;;133.57;;
9807;SDS011;4943;52.550;13.462;2023-09-19T13:08:23;277.33;;;135.87;;
9807;SDS011;4943;52.550;13.462;2023-09-19T13:11:05;277.77;;;135.87;;
9807;SDS011;4943;52.550;13.462;2023-09-19T13:13:37;279.33;;;135.63;;
9807;SDS011;4943;52.550;13.462;2023-09-19T13:16:14;280.60;;;134.70;;
9807;SDS011;4943;52.550;13.462;2023-09-19T13:18:48;274.87;;;133.47;;
9807;SDS011;4943;52.550;13.462;2023-09-19T13:21:27;278.23;;;137.63;;
9807;SDS011;4943;52.550;13.462;2023-09-19T13:26:45;282.60;;;138.93;;
9807;SDS011;4943;52.550;13.462;2023-09-19T13:29:13;282.03;;;139.60;;
9807;SDS011;4943;52.550;13.462;2023-09-19T13:31:45;278.23;;;138.83;;
9807;SDS011;4943;52.550;13.462;2023-09-19T13:34:15;281.30;;;142.10;;
9807;SDS011;4943;52.550;13.462;2023-09-19T13:36:44;282.37;;;142.80;;
9807;SDS011;4943;52.550;13.462;2023-09-19T13:39:14;276.70;;;134.97;;
9807;SDS011;4943;52.550;13.462;2023-09-19T13:41:43;276.83;;;136.00;;
9807;SDS011;4943;52.550;13.462;2023-09-19T13:44:13;278.77;;;139.17;;
9807;SDS011;4943;52.550;13.462;2023-09-19T13:46:41;280.77;;;138.23;;
9807;SDS011;4943;52.550;13.462;2023-09-19T13:49:12;280.20;;;136.83;;
9807;SDS011;4943;52.550;13.462;2023-09-19T13:51:42;277.60;;;134.63;;
9807;SDS011;4943;52.550;13.462;2023-09-19T13:54:11;279.27;;;134.40;;
9807;SDS011;4943;52.550;13.462;2023-09-19T13:56:40;282.47;;;134.80;;
9807;SDS011;4943;52.550;13.462;2023-09-19T13:59:08;279.20;;;136.73;;
9807;SDS011;4943;52.550;13.462;2023-09-19T14:01:36;284.30;;;136.13;;
9807;SDS011;4943;52.550;13.462;2023-09-19T14:04:07;281.17;;;136.07;;
9807;SDS011;4943;52.550;13.462;2023-09-19T14:06:37;278.73;;;136.87;;
9807;SDS011;4943;52.550;13.462;2023-09-19T14:09:06;278.87;;;137.43;;
9807;SDS011;4943;52.550;13.462;2023-09-19T14:11:34;279.57;;;143.53;;
9807;SDS011;4943;52.550;13.462;2023-09-19T14:14:02;280.00;;;140.77;;
9807;SDS011;4943;52.550;13.462;2023-09-19T14:16:31;278.00;;;141.07;;
9807;SDS011;4943;52.550;13.462;2023-09-19T14:19:00;278.70;;;138.80;;
9807;SDS011;4943;52.550;13.462;2023-09-19T14:21:28;276.97;;;136.80;;
9807;SDS011;4943;52.550;13.462;2023-09-19T14:23:56;288.20;;;140.13;;
9807;SDS011;4943;52.550;13.462;2023-09-19T14:26:25;278.93;;;137.00;;
9807;SDS011;4943;52.550;13.462;2023-09-19T14:28:53;277.53;;;135.77;;
9807;SDS011;4943;52.550;13.462;2023-09-19T14:31:21;280.07;;;139.57;;
9807;SDS011;4943;52.550;13.462;2023-09-19T14:33:53;276.37;;;135.03;;
9807;SDS011;4943;52.550;13.462;2023-09-19T14:36:22;278.87;;;134.53;;
9807;SDS011;4943;52.550;13.462;2023-09-19T14:38:52;281.43;;;134.70;;
9807;SDS011;4943;52.550;13.462;2023-09-19T14:41:21;275.90;;;132.33;;
9807;SDS011;4943;52.550;13.462;2023-09-19T14:43:53;279.63;;;135.63;;
9807;SDS011;4943;52.550;13.462;2023-09-19T14:46:22;279.07;;;135.13;;
9807;SDS011;4943;52.550;13.462;2023-09-19T14:48:51;279.33;;;137.93;;
9807;SDS011;4943;52.550;13.462;2023-09-19T14:51:19;286.77;;;135.97;;
9807;SDS011;4943;52.550;13.462;2023-09-19T14:53:47;281.47;;;140.10;;
9807;SDS011;4943;52.550;13.462;2023-09-19T14:56:15;279.80;;;138.40;;
9807;SDS011;4943;52.550;13.462;2023-09-19T14:58:46;279.13;;;137.13;;
9807;SDS011;4943;52.550;13.462;2023-09-19T15:01:16;281.33;;;140.30;;